Terminal Aerodrome Forecast
Issued by NWS

Home | Current Version | Previous Version | Text Only | Print | Product List | Glossary Off
Versions: 1 2 3 4 5 6 7 8 9 10 11 12 13 14 15

000
FTUS45 KGGW 221124
TAFSDY
TAF
KSDY 221124Z 2212/2312 VRB05KT P6SM SCT110
     FM221500 08005KT P6SM VCSH BKN090
     FM221800 08009KT P6SM VCTS BKN080CB
     FM231000 27014KT P6SM VCSH BKN100=

USA.gov is the U.S. government's official web portal to all federal, state and local government web resources and services.